Time;durP1;ratioP1;P1;durP2;ratioP2;P2;SDS_P1;SDS_P2;PMS_P1;PMS_P2;Temp;Humidity;BMP_temperature;BMP_pressure;BME280_temperature;BME280_humidity;BME280_pressure;Samples;Min_cycle;Max_cycle;Signal;HPM_P1;HPM_P2
2022/08/08 00:02:10;;;;;;;0.90;0.60;;;;;;;;;;5029018;28;20500;-81
2022/08/08 00:05:01;;;;;;;1.95;0.60;;;;;;;;;;5028833;28;20042;-81
2022/08/08 00:07:51;;;;;;;2.22;0.98;;;;;;;;;;5016451;28;20095;-80
2022/08/08 00:10:46;;;;;;;1.60;0.80;;;;;;;;;;5003761;28;20091;-81
2022/08/08 00:13:56;;;;;;;1.80;1.17;;;;;;;;;;5029119;28;20026;-81
2022/08/08 00:16:46;;;;;;;1.00;0.40;;;;;;;;;;5027986;28;20137;-81
2022/08/08 00:19:41;;;;;;;1.77;0.77;;;;;;;;;;5028599;28;20048;-81
2022/08/08 00:22:31;;;;;;;1.13;0.50;;;;;;;;;;5029080;28;20045;-81
2022/08/08 00:25:29;;;;;;;1.27;0.70;;;;;;;;;;5016406;28;20038;-81
2022/08/08 00:28:17;;;;;;;1.75;0.73;;;;;;;;;;5028025;28;20459;-81
2022/08/08 00:31:13;;;;;;;2.30;1.23;;;;;;;;;;5003512;28;20087;-81
2022/08/08 00:37:34;;;;;;;1.17;0.60;;;;;;;;;;5034481;28;20084;-81
2022/08/08 00:40:42;;;;;;;2.83;0.90;;;;;;;;;;5019654;28;20041;-81
2022/08/08 00:43:59;;;;;;;1.92;0.75;;;;;;;;;;5033056;28;20043;-81
2022/08/08 00:47:23;;;;;;;1.60;0.65;;;;;;;;;;5034589;28;20097;-81
2022/08/08 00:50:30;;;;;;;2.53;0.98;;;;;;;;;;5032954;28;20042;-81
2022/08/08 00:53:53;;;;;;;2.58;0.80;;;;;;;;;;5032694;28;20041;-81
2022/08/08 00:56:44;;;;;;;1.77;0.80;;;;;;;;;;5032843;28;20033;-81
2022/08/08 00:59:58;;;;;;;2.30;0.70;;;;;;;;;;5031875;28;20415;-81
2022/08/08 01:03:38;;;;;;;2.50;0.70;;;;;;;;;;5032034;28;20033;-81
2022/08/08 01:07:11;;;;;;;1.45;0.85;;;;;;;;;;5031828;28;20068;-81
2022/08/08 01:10:13;;;;;;;1.50;0.70;;;;;;;;;;5032911;28;20037;-81
2022/08/08 01:13:18;;;;;;;1.35;0.55;;;;;;;;;;5030763;28;20033;-81
2022/08/08 01:16:23;;;;;;;3.60;0.90;;;;;;;;;;5031566;28;20156;-81
2022/08/08 01:19:27;;;;;;;4.75;0.88;;;;;;;;;;5019877;28;20041;-81
2022/08/08 01:22:56;;;;;;;2.10;0.70;;;;;;;;;;5031087;28;20143;-81
2022/08/08 01:26:10;;;;;;;1.58;0.57;;;;;;;;;;5021064;28;20163;-81
2022/08/08 01:29:07;;;;;;;2.35;0.98;;;;;;;;;;5031072;28;20507;-81
2022/08/08 01:32:02;;;;;;;1.20;0.80;;;;;;;;;;5030965;28;20048;-81
2022/08/08 01:34:53;;;;;;;1.23;0.60;;;;;;;;;;5031836;28;20447;-81
2022/08/08 01:37:58;;;;;;;1.20;0.50;;;;;;;;;;5032467;28;20037;-81
2022/08/08 01:40:52;;;;;;;5.70;1.00;;;;;;;;;;5033130;28;20040;-81
2022/08/08 01:43:48;;;;;;;3.58;0.93;;;;;;;;;;5031253;28;20034;-81
2022/08/08 01:46:51;;;;;;;2.92;1.10;;;;;;;;;;5017863;28;20116;-81
2022/08/08 01:50:04;;;;;;;2.42;1.13;;;;;;;;;;5033615;28;20427;-81
2022/08/08 01:52:58;;;;;;;2.80;1.10;;;;;;;;;;5031283;28;20456;-81
2022/08/08 01:55:51;;;;;;;1.95;0.82;;;;;;;;;;5005616;28;20128;-81
2022/08/08 01:59:12;;;;;;;1.40;0.73;;;;;;;;;;5030541;28;20100;-81
2022/08/08 02:02:24;;;;;;;1.80;0.82;;;;;;;;;;5030331;28;20538;-81
2022/08/08 02:05:12;;;;;;;2.78;1.00;;;;;;;;;;5030834;28;20030;-80
2022/08/08 02:08:15;;;;;;;2.20;0.95;;;;;;;;;;5030840;28;20491;-81
2022/08/08 02:11:21;;;;;;;;;;;;;;;;;;5030897;28;20046;-82
2022/08/08 02:14:44;;;;;;;0.93;0.52;;;;;;;;;;5031313;28;19920;-81
2022/08/08 02:17:35;;;;;;;2.13;1.10;;;;;;;;;;5032963;28;20463;-81
2022/08/08 02:20:30;;;;;;;1.48;0.68;;;;;;;;;;5017785;28;20119;-81
2022/08/08 02:23:23;;;;;;;1.40;0.73;;;;;;;;;;5016890;28;20040;-81
2022/08/08 02:26:14;;;;;;;1.58;0.63;;;;;;;;;;5029910;28;20072;-81
2022/08/08 02:29:24;;;;;;;1.48;0.93;;;;;;;;;;5031782;28;20029;-80
2022/08/08 02:32:14;;;;;;;2.88;1.08;;;;;;;;;;5029235;28;20080;-81
2022/08/08 02:35:25;;;;;;;1.58;0.80;;;;;;;;;;5029454;28;20041;-81
2022/08/08 02:38:46;;;;;;;1.92;1.02;;;;;;;;;;5018052;28;20466;-81
2022/08/08 02:42:18;;;;;;;1.30;0.70;;;;;;;;;;5016253;28;20052;-81
2022/08/08 02:45:16;;;;;;;1.33;0.77;;;;;;;;;;5031729;28;20037;-81
2022/08/08 02:48:21;;;;;;;1.73;0.77;;;;;;;;;;5029225;28;20365;-81
2022/08/08 02:51:56;;;;;;;3.30;1.08;;;;;;;;;;5029354;28;20073;-81
2022/08/08 02:54:57;;;;;;;1.65;1.00;;;;;;;;;;5020471;28;20037;-81
2022/08/08 02:57:55;;;;;;;1.92;1.30;;;;;;;;;;5029410;28;20059;-81
2022/08/08 03:00:56;;;;;;;1.92;1.13;;;;;;;;;;5029916;28;20037;-81
2022/08/08 03:03:42;;;;;;;2.72;0.80;;;;;;;;;;5029598;28;20341;-81
2022/08/08 03:06:46;;;;;;;2.15;1.10;;;;;;;;;;5029630;28;20048;-81
2022/08/08 03:09:51;;;;;;;2.70;1.30;;;;;;;;;;5029745;28;20049;-81
2022/08/08 03:13:14;;;;;;;1.85;0.80;;;;;;;;;;5029371;28;20038;-81
2022/08/08 03:16:32;;;;;;;2.08;0.60;;;;;;;;;;5029579;28;20033;-81
2022/08/08 03:19:57;;;;;;;2.05;1.15;;;;;;;;;;5003938;28;20049;-81
2022/08/08 03:22:52;;;;;;;1.88;0.90;;;;;;;;;;5031277;28;20458;-81
2022/08/08 03:25:38;;;;;;;2.25;0.90;;;;;;;;;;5016079;28;20103;-81
2022/08/08 03:28:31;;;;;;;1.75;0.98;;;;;;;;;;5028933;28;20049;-80
2022/08/08 03:34:25;;;;;;;1.50;0.85;;;;;;;;;;5030707;28;20507;-80
2022/08/08 03:37:14;;;;;;;2.42;0.90;;;;;;;;;;5015241;28;20044;-81
2022/08/08 03:40:00;;;;;;;2.83;0.88;;;;;;;;;;5028787;28;20080;-81
2022/08/08 03:42:46;;;;;;;1.95;1.20;;;;;;;;;;5003845;28;20575;-81
2022/08/08 03:45:32;;;;;;;2.25;0.85;;;;;;;;;;5030049;28;20128;-81
2022/08/08 03:48:18;;;;;;;1.48;0.95;;;;;;;;;;5004084;28;20041;-81
2022/08/08 03:51:05;;;;;;;2.30;1.10;;;;;;;;;;5027979;28;20045;-81
2022/08/08 03:53:51;;;;;;;1.40;0.70;;;;;;;;;;5030548;28;20044;-81
2022/08/08 03:56:37;;;;;;;1.65;0.85;;;;;;;;;;5029127;28;20053;-80
2022/08/08 03:59:29;;;;;;;2.90;0.98;;;;;;;;;;5017024;28;20084;-81
2022/08/08 04:02:18;;;;;;;2.30;1.20;;;;;;;;;;5028698;28;20041;-81
2022/08/08 04:05:04;;;;;;;1.15;0.63;;;;;;;;;;5029838;28;20038;-80
2022/08/08 04:07:50;;;;;;;1.55;0.98;;;;;;;;;;5029143;28;20045;-81
2022/08/08 04:10:37;;;;;;;1.38;0.93;;;;;;;;;;5019952;28;20049;-81
2022/08/08 04:13:22;;;;;;;2.60;1.00;;;;;;;;;;5008071;28;20044;-81
2022/08/08 04:16:08;;;;;;;3.38;1.25;;;;;;;;;;5007039;28;20052;-81
2022/08/08 04:18:54;;;;;;;2.03;1.00;;;;;;;;;;5032470;28;20041;-80
2022/08/08 04:21:39;;;;;;;2.20;1.20;;;;;;;;;;5018269;28;20415;-81
2022/08/08 04:24:26;;;;;;;1.85;1.08;;;;;;;;;;5019192;28;20107;-81
2022/08/08 04:27:12;;;;;;;1.58;1.10;;;;;;;;;;5032155;28;20040;-81
2022/08/08 04:29:58;;;;;;;1.90;1.00;;;;;;;;;;5007701;28;20053;-81
2022/08/08 04:32:43;;;;;;;2.85;1.15;;;;;;;;;;5018949;28;20491;-81
2022/08/08 04:35:29;;;;;;;1.95;0.90;;;;;;;;;;5007397;28;20388;-81
2022/08/08 04:38:15;;;;;;;2.33;1.85;;;;;;;;;;5019026;28;20072;-81
2022/08/08 04:41:01;;;;;;;1.55;0.82;;;;;;;;;;5021082;28;20474;-81
2022/08/08 04:43:46;;;;;;;1.85;0.93;;;;;;;;;;5007548;28;20411;-81
2022/08/08 04:46:32;;;;;;;2.22;0.93;;;;;;;;;;5032333;28;20195;-81
2022/08/08 04:49:18;;;;;;;2.78;1.00;;;;;;;;;;5033467;28;20049;-81
2022/08/08 04:52:04;;;;;;;2.50;0.90;;;;;;;;;;5034117;28;20064;-81
2022/08/08 04:54:49;;;;;;;2.42;1.33;;;;;;;;;;5032778;28;20034;-81
2022/08/08 04:57:35;;;;;;;5.22;1.17;;;;;;;;;;5007165;28;20451;-81
2022/08/08 05:00:24;;;;;;;2.00;1.15;;;;;;;;;;5020628;28;20510;-81
2022/08/08 05:03:09;;;;;;;2.67;1.13;;;;;;;;;;5032444;28;20396;-80
2022/08/08 05:05:55;;;;;;;1.85;1.17;;;;;;;;;;5006931;28;20423;-81
2022/08/08 05:08:41;;;;;;;1.80;0.85;;;;;;;;;;5031614;28;20150;-81
2022/08/08 05:11:27;;;;;;;1.77;1.08;;;;;;;;;;5018243;28;20645;-81
2022/08/08 05:14:12;;;;;;;2.03;0.98;;;;;;;;;;5006909;28;20574;-81
2022/08/08 05:16:58;;;;;;;2.10;1.20;;;;;;;;;;5031238;28;20488;-81
2022/08/08 05:19:44;;;;;;;1.58;0.80;;;;;;;;;;5020123;28;20484;-80
2022/08/08 05:22:30;;;;;;;1.95;1.02;;;;;;;;;;5030027;28;20044;-81
2022/08/08 05:25:16;;;;;;;3.38;1.17;;;;;;;;;;5031304;28;20098;-81
2022/08/08 05:28:02;;;;;;;2.78;1.15;;;;;;;;;;5018132;28;20511;-81
2022/08/08 05:30:48;;;;;;;2.20;1.17;;;;;;;;;;5031927;28;20041;-81
2022/08/08 05:33:34;;;;;;;2.35;1.02;;;;;;;;;;5030799;28;20066;-81
2022/08/08 05:36:20;;;;;;;1.90;0.93;;;;;;;;;;5018934;28;20037;-81
2022/08/08 05:39:06;;;;;;;1.95;1.20;;;;;;;;;;5031073;28;20049;-80
2022/08/08 05:41:52;;;;;;;1.52;0.77;;;;;;;;;;5030749;28;20042;-81
2022/08/08 05:44:42;;;;;;;2.30;1.05;;;;;;;;;;5017583;28;20072;-81
2022/08/08 05:47:27;;;;;;;2.42;1.25;;;;;;;;;;5030404;28;20080;-81
2022/08/08 05:50:13;;;;;;;1.77;1.00;;;;;;;;;;5017135;28;20042;-81
2022/08/08 05:52:59;;;;;;;3.35;1.27;;;;;;;;;;5030744;28;20120;-81
2022/08/08 05:55:44;;;;;;;2.15;0.80;;;;;;;;;;5030691;28;20125;-81
2022/08/08 05:58:31;;;;;;;2.50;1.27;;;;;;;;;;5006182;28;20069;-81
2022/08/08 06:01:17;;;;;;;2.05;1.15;;;;;;;;;;5032814;28;20037;-81
2022/08/08 06:04:03;;;;;;;2.67;1.02;;;;;;;;;;5018279;28;20050;-80
2022/08/08 06:06:52;;;;;;;1.88;0.90;;;;;;;;;;5030988;28;20512;-81
2022/08/08 06:09:38;;;;;;;2.03;1.13;;;;;;;;;;5018624;28;20136;-81
2022/08/08 06:12:23;;;;;;;2.55;0.80;;;;;;;;;;5030239;28;20052;-81
2022/08/08 06:15:10;;;;;;;1.75;1.00;;;;;;;;;;5032096;28;20041;-81
2022/08/08 06:17:55;;;;;;;2.28;0.82;;;;;;;;;;5004953;28;20052;-81
2022/08/08 06:20:42;;;;;;;2.28;0.80;;;;;;;;;;5017637;28;20045;-81
2022/08/08 06:23:27;;;;;;;1.52;0.90;;;;;;;;;;5030040;28;20045;-81
2022/08/08 06:26:13;;;;;;;1.83;0.95;;;;;;;;;;5029991;28;20052;-81
2022/08/08 06:29:04;;;;;;;1.55;0.70;;;;;;;;;;5016938;28;20037;-81
2022/08/08 06:31:50;;;;;;;2.22;1.25;;;;;;;;;;5029660;28;20470;-81
2022/08/08 06:34:36;;;;;;;2.67;1.38;;;;;;;;;;5029548;28;20419;-81
2022/08/08 06:37:22;;;;;;;1.63;0.90;;;;;;;;;;5031318;28;20120;-81
2022/08/08 06:40:10;;;;;;;2.20;1.08;;;;;;;;;;5017662;28;20056;-81
2022/08/08 06:43:06;;;;;;;2.38;1.30;;;;;;;;;;5031420;28;20545;-81
2022/08/08 06:45:52;;;;;;;3.55;1.08;;;;;;;;;;5017560;28;20041;-81
2022/08/08 06:48:38;;;;;;;1.90;1.10;;;;;;;;;;5029804;28;20066;-81
2022/08/08 06:51:23;;;;;;;2.20;1.10;;;;;;;;;;5028834;28;20041;-81
2022/08/08 06:54:10;;;;;;;2.80;1.40;;;;;;;;;;5017613;28;20041;-81
2022/08/08 06:56:56;;;;;;;2.80;1.23;;;;;;;;;;5017074;28;20056;-81
2022/08/08 06:59:42;;;;;;;2.85;1.20;;;;;;;;;;5029331;28;20029;-81
2022/08/08 07:02:30;;;;;;;2.00;1.10;;;;;;;;;;5030613;28;20042;-81
2022/08/08 07:05:16;;;;;;;2.58;1.20;;;;;;;;;;5032066;28;20600;-81
2022/08/08 07:08:14;;;;;;;4.55;1.30;;;;;;;;;;5004800;28;20124;-81
2022/08/08 07:10:59;;;;;;;2.80;1.42;;;;;;;;;;5030866;28;20468;-81
2022/08/08 07:13:45;;;;;;;2.38;1.63;;;;;;;;;;5031917;28;20510;-81
2022/08/08 07:16:36;;;;;;;2.45;1.40;;;;;;;;;;5015753;28;20130;-81
2022/08/08 07:19:34;;;;;;;2.78;1.52;;;;;;;;;;5030247;28;20509;-81
2022/08/08 07:23:05;;;;;;;3.03;1.33;;;;;;;;;;5029694;28;20044;-81
2022/08/08 07:25:51;;;;;;;2.20;1.40;;;;;;;;;;5029038;28;20041;-81
2022/08/08 07:28:38;;;;;;;2.15;1.17;;;;;;;;;;5029014;28;20034;-81
2022/08/08 07:31:23;;;;;;;1.80;0.82;;;;;;;;;;5018573;28;20029;-81
2022/08/08 07:34:10;;;;;;;2.10;1.00;;;;;;;;;;5028894;28;20408;-81
2022/08/08 07:36:56;;;;;;;1.90;1.10;;;;;;;;;;5028830;28;20077;-81
2022/08/08 07:39:42;;;;;;;2.05;1.23;;;;;;;;;;5030092;28;20045;-81
2022/08/08 07:42:28;;;;;;;2.17;1.08;;;;;;;;;;5016716;28;20048;-81
2022/08/08 07:45:14;;;;;;;2.38;1.17;;;;;;;;;;5028733;28;20033;-81
2022/08/08 07:48:01;;;;;;;2.67;1.00;;;;;;;;;;5017875;28;20421;-81
2022/08/08 07:50:47;;;;;;;3.08;0.90;;;;;;;;;;5029967;28;20044;-81
2022/08/08 07:53:43;;;;;;;2.65;1.27;;;;;;;;;;5018158;28;20030;-82
2022/08/08 07:56:30;;;;;;;3.17;1.50;;;;;;;;;;5028732;28;20067;-81
2022/08/08 07:59:16;;;;;;;2.20;1.30;;;;;;;;;;5028629;28;20041;-81
2022/08/08 08:02:05;;;;;;;3.28;1.33;;;;;;;;;;5028859;28;20140;-81
2022/08/08 08:04:53;;;;;;;2.10;1.17;;;;;;;;;;5004613;28;20124;-82
2022/08/08 08:07:39;;;;;;;2.47;1.10;;;;;;;;;;5028708;28;20191;-81
2022/08/08 08:10:26;;;;;;;3.17;1.15;;;;;;;;;;5028791;28;20050;-81
2022/08/08 08:13:30;;;;;;;2.65;1.58;;;;;;;;;;5016214;28;20042;-81
2022/08/08 08:16:19;;;;;;;1.67;1.02;;;;;;;;;;5029280;28;20117;-81
2022/08/08 08:19:09;;;;;;;2.00;1.13;;;;;;;;;;5028619;28;20117;-81
2022/08/08 08:21:54;;;;;;;2.13;0.70;;;;;;;;;;5027886;28;20049;-81
2022/08/08 08:24:41;;;;;;;3.40;1.30;;;;;;;;;;5029629;28;20121;-81
2022/08/08 08:27:26;;;;;;;1.98;1.17;;;;;;;;;;5028276;28;20068;-81
2022/08/08 08:30:12;;;;;;;2.28;1.20;;;;;;;;;;5031370;28;20041;-81
2022/08/08 08:32:58;;;;;;;5.05;1.70;;;;;;;;;;5030054;28;20041;-81
2022/08/08 08:35:44;;;;;;;3.45;1.20;;;;;;;;;;5017507;28;20099;-81
2022/08/08 08:38:30;;;;;;;1.77;1.05;;;;;;;;;;5015916;28;20095;-81
2022/08/08 08:41:19;;;;;;;2.70;1.35;;;;;;;;;;5014157;28;20252;-82
2022/08/08 08:44:05;;;;;;;2.70;1.42;;;;;;;;;;5015841;28;20480;-81
2022/08/08 08:46:51;;;;;;;1.95;1.10;;;;;;;;;;5028039;28;20029;-82
2022/08/08 08:49:37;;;;;;;2.78;1.27;;;;;;;;;;5016219;28;20120;-82
2022/08/08 08:52:22;;;;;;;2.03;0.85;;;;;;;;;;5028986;28;20029;-82
2022/08/08 08:55:11;;;;;;;1.95;1.00;;;;;;;;;;5028242;28;20045;-82
2022/08/08 08:57:57;;;;;;;2.58;1.00;;;;;;;;;;5018954;28;20052;-81
2022/08/08 09:00:43;;;;;;;2.40;1.13;;;;;;;;;;5031549;28;20048;-82
2022/08/08 09:03:29;;;;;;;2.75;1.17;;;;;;;;;;5031635;28;20123;-82
2022/08/08 09:06:22;;;;;;;1.73;0.90;;;;;;;;;;5006922;28;20037;-83
2022/08/08 09:09:12;;;;;;;1.80;0.93;;;;;;;;;;5032386;28;20136;-82
2022/08/08 09:11:58;;;;;;;1.35;0.93;;;;;;;;;;5031991;28;20050;-82
2022/08/08 09:14:44;;;;;;;1.88;0.82;;;;;;;;;;5020713;28;20076;-82
2022/08/08 09:17:30;;;;;;;1.65;0.90;;;;;;;;;;5031426;28;20158;-81
2022/08/08 09:20:16;;;;;;;1.90;0.75;;;;;;;;;;5019218;28;20492;-82
2022/08/08 09:23:01;;;;;;;2.45;0.95;;;;;;;;;;5033426;28;20037;-81
2022/08/08 09:26:18;;;;;;;3.65;1.02;;;;;;;;;;5032291;28;20064;-82
2022/08/08 09:29:03;;;;;;;2.03;0.95;;;;;;;;;;5032965;28;20046;-82
2022/08/08 09:31:54;;;;;;;2.80;1.13;;;;;;;;;;5032181;28;20030;-83
2022/08/08 09:34:40;;;;;;;1.65;0.93;;;;;;;;;;5031908;28;20046;-82
2022/08/08 09:37:27;;;;;;;1.88;1.10;;;;;;;;;;5032212;28;20038;-82
2022/08/08 09:40:14;;;;;;;2.10;1.00;;;;;;;;;;5031904;28;20045;-83
2022/08/08 09:43:33;;;;;;;2.35;1.05;;;;;;;;;;5032119;28;20037;-83
2022/08/08 09:46:18;;;;;;;2.78;0.95;;;;;;;;;;5030662;28;20041;-82
2022/08/08 09:49:09;;;;;;;1.42;0.80;;;;;;;;;;5018130;28;20535;-83
2022/08/08 09:51:57;;;;;;;1.83;0.80;;;;;;;;;;5006939;28;20041;-82
2022/08/08 09:54:43;;;;;;;3.08;1.02;;;;;;;;;;5017765;28;20508;-82
2022/08/08 09:57:32;;;;;;;2.80;1.00;;;;;;;;;;5018603;28;20038;-81
2022/08/08 10:00:20;;;;;;;1.75;0.90;;;;;;;;;;5030915;28;20118;-82
2022/08/08 10:03:07;;;;;;;2.03;1.02;;;;;;;;;;5017155;28;20045;-82
2022/08/08 10:05:52;;;;;;;1.85;0.88;;;;;;;;;;5031800;28;20044;-82
2022/08/08 10:08:48;;;;;;;2.33;0.80;;;;;;;;;;5016093;28;20053;-82
2022/08/08 10:11:34;;;;;;;2.00;1.20;;;;;;;;;;5018154;28;20038;-83
2022/08/08 10:14:19;;;;;;;2.72;1.00;;;;;;;;;;5016629;28;20087;-82
2022/08/08 10:17:07;;;;;;;2.38;0.80;;;;;;;;;;5019494;28;20037;-82
2022/08/08 10:19:57;;;;;;;1.45;0.85;;;;;;;;;;5017671;28;20042;-83
2022/08/08 10:22:51;;;;;;;1.80;0.80;;;;;;;;;;5017002;28;20061;-82
2022/08/08 10:25:38;;;;;;;1.90;1.08;;;;;;;;;;5017683;28;20048;-84
2022/08/08 10:28:24;;;;;;;1.45;0.93;;;;;;;;;;5031775;28;20041;-82
2022/08/08 10:34:27;;;;;;;2.40;1.02;;;;;;;;;;5035301;28;20104;-82
2022/08/08 10:37:13;;;;;;;1.45;0.80;;;;;;;;;;5029641;28;20151;-83
2022/08/08 10:39:59;;;;;;;1.75;0.60;;;;;;;;;;5017156;28;20049;-83
2022/08/08 10:42:47;;;;;;;2.13;0.88;;;;;;;;;;5030018;28;20095;-83
2022/08/08 10:45:43;;;;;;;2.38;1.02;;;;;;;;;;5029855;28;20119;-83
2022/08/08 10:48:32;;;;;;;1.50;0.70;;;;;;;;;;5018858;28;20128;-82
2022/08/08 10:51:19;;;;;;;2.22;0.95;;;;;;;;;;5018047;28;20042;-83
2022/08/08 10:54:04;;;;;;;1.65;0.90;;;;;;;;;;5017649;28;20488;-82
2022/08/08 10:56:57;;;;;;;1.88;0.80;;;;;;;;;;5016070;28;20422;-83
2022/08/08 10:59:46;;;;;;;1.58;0.75;;;;;;;;;;5004536;28;20090;-81
2022/08/08 11:02:35;;;;;;;1.20;0.60;;;;;;;;;;5032413;28;20041;-83
2022/08/08 11:05:21;;;;;;;1.63;0.63;;;;;;;;;;5018321;28;20041;-82
2022/08/08 11:08:07;;;;;;;2.00;0.93;;;;;;;;;;5029455;28;20491;-83
2022/08/08 11:11:07;;;;;;;2.30;0.95;;;;;;;;;;5031013;28;20511;-83
2022/08/08 11:13:57;;;;;;;2.10;0.70;;;;;;;;;;5018451;28;20050;-83
2022/08/08 11:16:44;;;;;;;1.38;0.57;;;;;;;;;;5030510;28;20057;-82
2022/08/08 11:19:30;;;;;;;1.50;0.73;;;;;;;;;;5030198;28;20045;-82
2022/08/08 11:22:16;;;;;;;2.78;0.90;;;;;;;;;;5028406;28;20038;-83
2022/08/08 11:25:03;;;;;;;1.92;0.73;;;;;;;;;;5004574;28;20038;-82
2022/08/08 11:27:49;;;;;;;1.45;0.70;;;;;;;;;;5016939;28;20037;-83
2022/08/08 11:30:35;;;;;;;1.50;0.73;;;;;;;;;;5003768;28;20458;-83
2022/08/08 11:33:22;;;;;;;1.50;0.60;;;;;;;;;;5028838;28;20030;-82
2022/08/08 11:36:08;;;;;;;1.73;0.80;;;;;;;;;;5028919;28;20042;-83
2022/08/08 11:38:54;;;;;;;1.70;0.80;;;;;;;;;;5004534;28;20091;-82
2022/08/08 11:41:39;;;;;;;2.05;0.85;;;;;;;;;;5030543;28;20500;-83
2022/08/08 11:44:25;;;;;;;2.35;0.70;;;;;;;;;;5017076;28;20041;-82
2022/08/08 11:47:11;;;;;;;1.48;0.80;;;;;;;;;;5017729;28;20091;-83
2022/08/08 11:49:58;;;;;;;1.58;0.80;;;;;;;;;;5028455;28;20412;-83
2022/08/08 11:52:43;;;;;;;1.27;0.70;;;;;;;;;;5028539;28;20042;-82
2022/08/08 11:55:29;;;;;;;1.77;0.98;;;;;;;;;;5029924;28;20049;-83
2022/08/08 11:58:15;;;;;;;1.83;0.63;;;;;;;;;;5016736;28;20045;-83
2022/08/08 12:01:03;;;;;;;1.25;0.55;;;;;;;;;;5029848;28;20044;-83
2022/08/08 12:03:49;;;;;;;2.40;0.80;;;;;;;;;;5016052;28;20030;-82
2022/08/08 12:06:34;;;;;;;1.60;0.90;;;;;;;;;;5016502;28;20132;-83
2022/08/08 12:09:20;;;;;;;1.55;0.70;;;;;;;;;;5030434;28;20068;-82
2022/08/08 12:12:06;;;;;;;1.45;0.70;;;;;;;;;;5031457;28;20085;-81
2022/08/08 12:15:01;;;;;;;1.80;0.70;;;;;;;;;;5017642;28;20033;-84
2022/08/08 12:17:47;;;;;;;1.35;0.57;;;;;;;;;;5015625;28;20041;-84
2022/08/08 12:20:37;;;;;;;1.33;0.70;;;;;;;;;;5016576;28;20041;-84
2022/08/08 12:23:34;;;;;;;1.52;0.60;;;;;;;;;;5030947;28;20041;-83
2022/08/08 12:26:22;;;;;;;1.75;0.90;;;;;;;;;;5016778;28;20033;-84
2022/08/08 12:29:21;;;;;;;2.05;0.50;;;;;;;;;;5003520;28;20415;-84
2022/08/08 12:32:12;;;;;;;1.48;0.60;;;;;;;;;;5031450;28;20042;-84
2022/08/08 12:34:57;;;;;;;1.42;0.60;;;;;;;;;;5018445;28;20443;-84
2022/08/08 12:37:44;;;;;;;1.23;0.50;;;;;;;;;;5033423;28;20049;-84
2022/08/08 12:40:39;;;;;;;1.40;0.60;;;;;;;;;;5032003;28;20098;-84
2022/08/08 12:43:31;;;;;;;1.60;0.88;;;;;;;;;;5020620;28;20488;-85
2022/08/08 12:46:21;;;;;;;2.50;0.60;;;;;;;;;;5032622;28;20475;-85
2022/08/08 12:49:07;;;;;;;1.95;0.63;;;;;;;;;;5032229;28;20037;-85
2022/08/08 12:51:53;;;;;;;1.65;0.55;;;;;;;;;;5020355;28;20078;-84
2022/08/08 12:54:39;;;;;;;1.75;0.88;;;;;;;;;;5019151;28;20506;-85
2022/08/08 12:57:24;;;;;;;1.30;0.68;;;;;;;;;;5032027;28;20499;-84
2022/08/08 13:00:10;;;;;;;1.63;0.73;;;;;;;;;;5019847;28;20443;-85
2022/08/08 13:02:57;;;;;;;1.13;0.50;;;;;;;;;;5033557;28;20466;-86
2022/08/08 13:05:42;;;;;;;1.35;0.80;;;;;;;;;;5018626;28;20461;-85
2022/08/08 13:08:46;;;;;;;2.35;0.70;;;;;;;;;;5031984;28;20060;-84
2022/08/08 13:11:34;;;;;;;1.30;0.60;;;;;;;;;;5031644;28;20095;-85
2022/08/08 13:14:19;;;;;;;1.73;0.70;;;;;;;;;;5031832;28;20037;-84
2022/08/08 13:17:05;;;;;;;1.30;0.70;;;;;;;;;;5018320;28;20444;-85
2022/08/08 13:19:54;;;;;;;2.30;0.70;;;;;;;;;;5031767;28;20045;-83
2022/08/08 13:22:42;;;;;;;1.60;0.85;;;;;;;;;;5033876;28;20124;-83
2022/08/08 13:25:30;;;;;;;1.30;0.68;;;;;;;;;;5006963;28;20475;-83
2022/08/08 13:28:16;;;;;;;1.58;0.80;;;;;;;;;;5031204;28;20037;-83
2022/08/08 13:31:02;;;;;;;1.00;0.57;;;;;;;;;;5030598;28;20046;-83
2022/08/08 13:33:48;;;;;;;1.67;0.68;;;;;;;;;;5019444;28;20128;-84
2022/08/08 13:36:39;;;;;;;1.40;0.63;;;;;;;;;;5031060;28;20041;-83
2022/08/08 13:39:28;;;;;;;1.38;0.70;;;;;;;;;;5017798;28;20038;-83
2022/08/08 13:42:13;;;;;;;1.17;0.70;;;;;;;;;;5018425;28;20049;-83
2022/08/08 13:45:00;;;;;;;1.42;0.65;;;;;;;;;;5031152;28;20095;-83
2022/08/08 13:47:58;;;;;;;1.02;0.52;;;;;;;;;;5033846;28;20083;-84
2022/08/08 13:50:46;;;;;;;1.30;0.90;;;;;;;;;;5032568;28;20049;-83
2022/08/08 13:53:31;;;;;;;1.27;0.60;;;;;;;;;;5018712;28;20057;-83
2022/08/08 13:56:27;;;;;;;1.30;0.73;;;;;;;;;;5018123;28;20045;-83
2022/08/08 13:59:13;;;;;;;2.53;0.80;;;;;;;;;;5031751;28;20484;-83
2022/08/08 14:01:59;;;;;;;1.50;0.68;;;;;;;;;;5031481;28;20042;-83
2022/08/08 14:04:58;;;;;;;1.30;0.65;;;;;;;;;;5033570;28;20033;-83
2022/08/08 14:07:48;;;;;;;1.40;0.50;;;;;;;;;;5017950;28;20056;-83
2022/08/08 14:10:36;;;;;;;1.38;0.57;;;;;;;;;;5030188;28;20133;-83
2022/08/08 14:13:22;;;;;;;1.73;0.70;;;;;;;;;;5018536;28;20033;-83
2022/08/08 14:16:08;;;;;;;1.15;0.50;;;;;;;;;;5031295;28;20044;-83
2022/08/08 14:18:56;;;;;;;1.55;0.60;;;;;;;;;;5017425;28;20135;-84
2022/08/08 14:21:42;;;;;;;0.80;0.43;;;;;;;;;;5005460;28;20532;-84
2022/08/08 14:24:32;;;;;;;1.33;0.60;;;;;;;;;;5030417;28;20120;-83
2022/08/08 14:27:19;;;;;;;1.25;0.60;;;;;;;;;;5030082;28;20562;-84
2022/08/08 14:30:10;;;;;;;0.90;0.47;;;;;;;;;;5030644;28;20037;-83
2022/08/08 14:32:57;;;;;;;1.70;0.70;;;;;;;;;;5017739;28;20033;-83
2022/08/08 14:35:43;;;;;;;1.35;0.40;;;;;;;;;;5029658;28;20474;-82
2022/08/08 14:38:29;;;;;;;0.70;0.40;;;;;;;;;;5029699;28;20447;-82
2022/08/08 14:41:19;;;;;;;1.30;0.52;;;;;;;;;;5030919;28;20064;-83
2022/08/08 14:44:06;;;;;;;1.67;0.93;;;;;;;;;;5030748;28;20056;-83
2022/08/08 14:46:58;;;;;;;1.48;0.70;;;;;;;;;;5017765;28;20182;-82
2022/08/08 14:49:43;;;;;;;2.10;0.88;;;;;;;;;;5017681;28;20034;-84
2022/08/08 14:52:40;;;;;;;1.05;0.60;;;;;;;;;;5017271;28;20472;-84
2022/08/08 14:55:26;;;;;;;0.85;0.50;;;;;;;;;;5016847;28;20034;-83
2022/08/08 14:58:12;;;;;;;1.00;0.60;;;;;;;;;;5032273;28;20042;-83
2022/08/08 15:00:58;;;;;;;0.90;0.40;;;;;;;;;;5016141;28;20041;-82
2022/08/08 15:03:43;;;;;;;1.55;0.65;;;;;;;;;;5018000;28;20128;-82
2022/08/08 15:06:29;;;;;;;1.20;0.55;;;;;;;;;;5017481;28;20119;-83
2022/08/08 15:09:15;;;;;;;1.33;0.60;;;;;;;;;;5030989;28;20499;-83
2022/08/08 15:12:01;;;;;;;1.38;0.60;;;;;;;;;;5029073;28;20598;-82
2022/08/08 15:14:46;;;;;;;1.30;0.55;;;;;;;;;;5029247;28;20041;-84
2022/08/08 15:17:32;;;;;;;0.88;0.50;;;;;;;;;;5029341;28;20045;-84
2022/08/08 15:20:18;;;;;;;1.52;0.40;;;;;;;;;;5015237;28;20044;-83
2022/08/08 15:23:03;;;;;;;0.80;0.43;;;;;;;;;;5015713;28;20468;-82
2022/08/08 15:25:49;;;;;;;0.88;0.50;;;;;;;;;;5029205;28;20420;-83
2022/08/08 15:28:35;;;;;;;0.95;0.40;;;;;;;;;;5004389;28;20037;-82
2022/08/08 15:31:21;;;;;;;1.27;0.70;;;;;;;;;;5004011;28;20046;-82
2022/08/08 15:34:06;;;;;;;1.55;0.80;;;;;;;;;;5029453;28;20038;-83
2022/08/08 15:36:52;;;;;;;1.30;0.60;;;;;;;;;;5029170;28;20037;-83
2022/08/08 15:39:38;;;;;;;1.23;0.57;;;;;;;;;;5029018;28;20397;-83
2022/08/08 15:42:23;;;;;;;1.25;0.60;;;;;;;;;;5028856;28;20050;-83
2022/08/08 15:45:09;;;;;;;1.13;0.43;;;;;;;;;;5016841;28;20044;-83
2022/08/08 15:47:55;;;;;;;0.98;0.50;;;;;;;;;;5016049;28;20422;-83
2022/08/08 15:51:00;;;;;;;1.45;0.43;;;;;;;;;;5015330;28;20491;-83
2022/08/08 15:53:45;;;;;;;0.88;0.50;;;;;;;;;;5020529;28;20060;-83
2022/08/08 15:56:31;;;;;;;0.90;0.45;;;;;;;;;;5028833;28;20499;-82
2022/08/08 15:59:17;;;;;;;1.00;0.50;;;;;;;;;;5028781;28;20416;-82
2022/08/08 16:02:02;;;;;;;1.35;0.60;;;;;;;;;;5030444;28;20484;-82
2022/08/08 16:04:49;;;;;;;1.42;0.75;;;;;;;;;;5031413;28;20515;-82
2022/08/08 16:07:34;;;;;;;1.20;0.50;;;;;;;;;;5008201;28;20049;-82
2022/08/08 16:10:23;;;;;;;0.77;0.38;;;;;;;;;;5032414;28;20052;-83
2022/08/08 16:13:09;;;;;;;1.42;0.40;;;;;;;;;;5019497;28;20488;-82
2022/08/08 16:15:55;;;;;;;0.77;0.32;;;;;;;;;;5032986;28;20064;-82
2022/08/08 16:18:41;;;;;;;0.80;0.50;;;;;;;;;;5032512;28;20436;-83
2022/08/08 16:21:29;;;;;;;0.90;0.30;;;;;;;;;;5032017;28;20069;-83
2022/08/08 16:24:15;;;;;;;0.75;0.40;;;;;;;;;;5032547;28;20099;-82
2022/08/08 16:27:00;;;;;;;0.65;0.32;;;;;;;;;;5032158;28;20124;-83
2022/08/08 16:29:46;;;;;;;0.80;0.50;;;;;;;;;;5033956;28;20049;-84
2022/08/08 16:32:32;;;;;;;0.98;0.50;;;;;;;;;;5035029;28;20040;-83
2022/08/08 16:35:18;;;;;;;1.02;0.55;;;;;;;;;;5035087;28;20040;-82
2022/08/08 16:38:03;;;;;;;1.17;0.60;;;;;;;;;;5033415;28;20041;-82
2022/08/08 16:40:50;;;;;;;0.77;0.40;;;;;;;;;;5019782;28;20049;-83
2022/08/08 16:43:36;;;;;;;0.93;0.50;;;;;;;;;;5033779;28;20069;-82
2022/08/08 16:46:22;;;;;;;1.10;0.60;;;;;;;;;;5018347;28;20112;-83
2022/08/08 16:49:08;;;;;;;1.08;0.52;;;;;;;;;;5031994;28;20496;-83
2022/08/08 16:51:54;;;;;;;1.02;0.60;;;;;;;;;;5019164;28;20069;-83
2022/08/08 16:54:39;;;;;;;0.73;0.50;;;;;;;;;;5021044;28;20037;-83
2022/08/08 16:57:26;;;;;;;0.90;0.60;;;;;;;;;;5032075;28;20045;-82
2022/08/08 17:00:12;;;;;;;1.10;0.60;;;;;;;;;;5031216;28;20068;-83
2022/08/08 17:02:57;;;;;;;1.13;0.40;;;;;;;;;;5033431;28;20132;-83
2022/08/08 17:05:43;;;;;;;0.82;0.45;;;;;;;;;;5033710;28;20523;-82
2022/08/08 17:08:29;;;;;;;0.93;0.40;;;;;;;;;;5017726;28;20488;-83
2022/08/08 17:11:15;;;;;;;1.23;0.45;;;;;;;;;;5017648;28;20042;-82
2022/08/08 17:14:00;;;;;;;1.02;0.60;;;;;;;;;;5031955;28;20030;-83